Time;durP1;ratioP1;P1;durP2;ratioP2;P2;SDS_P1;SDS_P2;PMS_P1;PMS_P2;Temp;Humidity;BMP_temperature;BMP_pressure;BME280_temperature;BME280_humidity;BME280_pressure;Samples;Min_cycle;Max_cycle;Signal;HPM_P1;HPM_P2
2023/07/03 00:00:25;;;;;;;;;;;;;;;21.62;65.50;100349.24;107662;1256;108960;-68
2023/07/03 00:03:13;;;;;;;;;;;;;;;21.56;65.78;100350.93;107589;1254;109836;-68
2023/07/03 00:05:46;;;;;;;;;;;;;;;21.51;67.01;100356.64;107593;1254;97710;-70
2023/07/03 00:08:16;;;;;;;;;;;;;;;21.43;67.58;100358.30;107608;1254;97960;-68
2023/07/03 00:10:44;;;;;;;;;;;;;;;21.38;67.67;100357.05;107656;1254;111561;-73
2023/07/03 00:13:12;;;;;;;;;;;;;;;21.34;67.62;100357.45;107662;1254;110036;-67
2023/07/03 00:15:41;;;;;;;;;;;;;;;21.34;67.35;100355.92;107632;1253;107380;-66
2023/07/03 00:18:09;;;;;;;;;;;;;;;21.35;68.14;100361.11;107616;1257;97809;-67
2023/07/03 00:20:39;;;;;;;;;;;;;;;21.35;67.55;100358.36;107610;1251;97828;-68
2023/07/03 00:23:07;;;;;;;;;;;;;;;21.38;67.55;100361.38;107655;1252;110642;-66
2023/07/03 00:25:37;;;;;;;;;;;;;;;21.37;67.92;100362.90;107667;1254;109912;-66
2023/07/03 00:28:06;;;;;;;;;;;;;;;21.40;67.60;100359.77;107578;1252;107905;-67
2023/07/03 00:30:34;;;;;;;;;;;;;;;21.47;67.05;100361.30;107563;1254;97829;-67
2023/07/03 00:33:02;;;;;;;;;;;;;;;21.54;66.59;100364.20;107600;1252;97774;-69
2023/07/03 00:35:30;;;;;;;;;;;;;;;21.63;66.13;100363.21;107579;1254;110960;-69
2023/07/03 00:38:00;;;;;;;;;;;;;;;21.71;66.26;100364.06;107647;1254;109938;-67
2023/07/03 00:40:28;;;;;;;;;;;;;;;21.76;65.98;100368.86;107467;1253;107328;-67
2023/07/03 00:42:56;;;;;;;;;;;;;;;21.82;65.45;100366.09;107630;1251;97838;-67
2023/07/03 00:45:25;;;;;;;;;;;;;;;21.89;65.86;100366.63;107632;1251;97732;-68
2023/07/03 00:47:53;;;;;;;;;;;;;;;21.87;66.22;100373.27;107643;1256;112039;-69
2023/07/03 00:50:23;;;;;;;;;;;;;;;21.80;66.66;100376.13;107529;1251;111228;-67
2023/07/03 00:52:55;;;;;;;;;;;;;;;21.68;67.52;100378.17;107622;1250;106679;-68
2023/07/03 00:55:23;;;;;;;;;;;;;;;21.59;67.34;100381.01;107556;1251;97813;-68
2023/07/03 00:57:52;;;;;;;;;;;;;;;21.55;68.07;100379.45;107626;1254;97814;-67
2023/07/03 01:00:21;;;;;;;;;;;;;;;21.52;68.05;100383.83;107606;1251;111882;-67
2023/07/03 01:02:56;;;;;;;;;;;;;;;21.49;68.75;100389.98;107607;1251;109061;-68
2023/07/03 01:05:27;;;;;;;;;;;;;;;21.44;68.86;100391.50;107643;1253;108570;-67
2023/07/03 01:07:57;;;;;;;;;;;;;;;21.39;68.83;100396.23;107611;1251;97803;-65
2023/07/03 01:10:28;;;;;;;;;;;;;;;21.37;68.91;100397.34;107640;1255;97829;-69
2023/07/03 01:12:59;;;;;;;;;;;;;;;21.33;69.11;100394.52;107648;1252;111352;-68
2023/07/03 01:15:28;;;;;;;;;;;;;;;21.34;69.36;100404.42;107646;1254;109792;-71
2023/07/03 01:17:58;;;;;;;;;;;;;;;21.33;69.53;100404.63;107616;1256;107415;-66
2023/07/03 01:20:30;;;;;;;;;;;;;;;21.33;69.60;100407.29;107551;1254;97813;-68
2023/07/03 01:23:13;;;;;;;;;;;;;;;21.28;69.92;100406.89;107695;1252;97825;-66
2023/07/03 01:25:42;;;;;;;;;;;;;;;21.27;70.22;100411.77;107627;1253;111977;-67
2023/07/03 01:28:12;;;;;;;;;;;;;;;21.25;70.45;100414.04;107576;1256;108948;-60
2023/07/03 01:30:42;;;;;;;;;;;;;;;21.23;70.23;100414.52;107572;1253;107797;-60
2023/07/03 01:33:17;;;;;;;;;;;;;;;21.25;70.37;100419.05;107443;1254;97836;-60
2023/07/03 01:35:48;;;;;;;;;;;;;;;21.28;70.17;100427.55;107653;1254;97724;-61
2023/07/03 01:38:18;;;;;;;;;;;;;;;21.31;70.17;100428.20;107607;1251;112061;-61
2023/07/03 01:40:47;;;;;;;;;;;;;;;21.32;70.33;100432.79;107657;1251;109806;-59
2023/07/03 01:43:15;;;;;;;;;;;;;;;21.33;70.36;100431.98;107608;1251;108821;-60
2023/07/03 01:45:48;;;;;;;;;;;;;;;21.33;69.99;100429.59;107607;1254;97870;-61
2023/07/03 01:48:19;;;;;;;;;;;;;;;21.35;70.52;100439.39;107614;1251;97813;-60
2023/07/03 01:50:48;;;;;;;;;;;;;;;21.33;70.35;100442.02;107517;1251;111319;-60
2023/07/03 01:53:45;;;;;;;;;;;;;;;21.30;70.42;100449.68;107577;1254;109328;-61
2023/07/03 01:56:18;;;;;;;;;;;;;;;21.32;70.28;100450.73;107510;1254;108272;-62
2023/07/03 01:58:59;;;;;;;;;;;;;;;21.31;70.95;100455.82;107581;1251;97819;-61
2023/07/03 02:01:33;;;;;;;;;;;;;;;21.26;70.80;100453.93;107574;1251;97847;-60
2023/07/03 02:04:06;;;;;;;;;;;;;;;21.24;70.73;100456.30;107628;1253;111859;-61
2023/07/03 02:06:41;;;;;;;;;;;;;;;21.26;70.68;100459.29;107625;1251;109360;-60
2023/07/03 02:09:09;;;;;;;;;;;;;;;21.25;70.56;100459.63;107479;1257;108260;-60
2023/07/03 02:11:39;;;;;;;;;;;;;;;21.18;71.15;100465.20;107586;1253;97821;-59
2023/07/03 02:14:09;;;;;;;;;;;;;;;21.12;71.15;100470.64;107474;1253;98008;-60
2023/07/03 02:16:41;;;;;;;;;;;;;;;21.08;71.48;100471.02;107475;1253;111675;-60
2023/07/03 02:19:13;;;;;;;;;;;;;;;21.05;71.63;100474.48;107621;1251;109693;-61
2023/07/03 02:21:45;;;;;;;;;;;;;;;21.04;71.40;100476.45;107585;1253;108582;-60
2023/07/03 02:24:13;;;;;;;;;;;;;;;21.03;71.31;100481.50;107449;1251;97816;-59
2023/07/03 02:26:43;;;;;;;;;;;;;;;21.02;71.33;100483.10;107487;1251;97727;-60
2023/07/03 02:29:12;;;;;;;;;;;;;;;20.99;71.60;100482.58;107638;1254;111714;-61
2023/07/03 02:31:40;;;;;;;;;;;;;;;20.99;71.31;100483.15;107460;1253;109465;-61
2023/07/03 02:34:09;;;;;;;;;;;;;;;21.01;70.96;100483.58;107579;1254;107287;-61
2023/07/03 02:36:38;;;;;;;;;;;;;;;21.02;71.09;100485.63;107611;1251;97925;-61
2023/07/03 02:39:09;;;;;;;;;;;;;;;20.98;70.83;100492.00;107601;1256;97868;-61
2023/07/03 02:41:37;;;;;;;;;;;;;;;20.98;70.52;100493.88;107586;1253;111862;-61
2023/07/03 02:44:06;;;;;;;;;;;;;;;20.99;70.44;100494.29;107654;1255;109729;-62
2023/07/03 02:46:35;;;;;;;;;;;;;;;20.96;70.45;100497.05;107595;1251;107854;-61
2023/07/03 02:49:03;;;;;;;;;;;;;;;20.94;70.23;100495.52;107639;1251;97870;-61
2023/07/03 02:51:32;;;;;;;;;;;;;;;20.92;69.95;100498.14;107698;1251;97796;-61
2023/07/03 02:54:03;;;;;;;;;;;;;;;20.89;70.00;100500.11;107586;1254;112053;-61
2023/07/03 02:56:32;;;;;;;;;;;;;;;20.86;70.15;100504.62;107574;1253;109230;-61
2023/07/03 02:59:00;;;;;;;;;;;;;;;20.85;70.04;100508.79;107634;1253;106822;-61
2023/07/03 03:01:33;;;;;;;;;;;;;;;20.84;69.96;100507.57;107582;1251;97803;-61
2023/07/03 03:04:02;;;;;;;;;;;;;;;20.85;70.03;100507.69;107690;1251;97700;-62
2023/07/03 03:06:31;;;;;;;;;;;;;;;20.85;70.00;100504.74;107678;1251;110383;-61
2023/07/03 03:09:00;;;;;;;;;;;;;;;20.84;70.03;100504.04;107462;1254;109610;-62
2023/07/03 03:11:29;;;;;;;;;;;;;;;20.83;69.91;100503.23;107603;1254;107951;-63
2023/07/03 03:13:58;;;;;;;;;;;;;;;20.88;69.85;100504.20;107614;1253;97925;-63
2023/07/03 03:16:27;;;;;;;;;;;;;;;20.91;69.67;100506.06;107638;1254;97851;-62
2023/07/03 03:18:56;;;;;;;;;;;;;;;20.92;69.76;100506.48;107605;1253;111088;-60
2023/07/03 03:21:24;;;;;;;;;;;;;;;20.91;69.58;100505.71;107632;1253;109764;-61
2023/07/03 03:23:52;;;;;;;;;;;;;;;20.90;69.51;100509.54;107426;1253;108249;-62
2023/07/03 03:26:20;;;;;;;;;;;;;;;20.91;69.53;100512.10;107573;1253;97837;-62
2023/07/03 03:28:48;;;;;;;;;;;;;;;20.91;69.85;100514.98;107654;1254;97690;-61
2023/07/03 03:31:17;;;;;;;;;;;;;;;20.93;69.51;100513.83;107637;1254;112333;-61
2023/07/03 03:33:55;;;;;;;;;;;;;;;20.92;69.60;100521.45;107638;1254;109660;-62
2023/07/03 03:36:23;;;;;;;;;;;;;;;20.89;69.80;100522.27;107625;1255;107438;-59
2023/07/03 03:38:53;;;;;;;;;;;;;;;20.87;69.81;100520.80;107557;1253;97838;-60
2023/07/03 03:41:22;;;;;;;;;;;;;;;20.85;69.80;100524.05;107638;1254;97803;-61
2023/07/03 03:43:50;;;;;;;;;;;;;;;20.85;69.84;100527.50;107640;1253;111945;-61
2023/07/03 03:46:21;;;;;;;;;;;;;;;20.84;70.02;100534.14;107597;1252;109737;-62
2023/07/03 03:48:49;;;;;;;;;;;;;;;20.84;69.96;100545.23;107575;1251;108230;-63
2023/07/03 03:51:18;;;;;;;;;;;;;;;20.87;70.08;100545.00;107641;1251;97819;-62
2023/07/03 03:53:46;;;;;;;;;;;;;;;20.88;69.68;100546.30;107566;1250;97828;-62
2023/07/03 03:56:14;;;;;;;;;;;;;;;20.90;69.74;100547.10;107563;1251;111576;-62
2023/07/03 03:58:42;;;;;;;;;;;;;;;20.91;69.75;100546.19;107595;1254;110346;-61
2023/07/03 04:01:11;;;;;;;;;;;;;;;20.94;69.36;100551.23;107481;1251;108270;-61
2023/07/03 04:03:39;;;;;;;;;;;;;;;20.98;69.35;100554.80;107572;1253;98001;-60
2023/07/03 04:06:08;;;;;;;;;;;;;;;21.00;69.19;100558.92;107580;1251;97713;-61
2023/07/03 04:08:36;;;;;;;;;;;;;;;21.02;69.00;100558.76;107560;1251;112203;-58
2023/07/03 04:11:04;;;;;;;;;;;;;;;21.11;68.76;100565.58;107566;1254;110974;-61
2023/07/03 04:13:32;;;;;;;;;;;;;;;21.17;68.63;100566.23;107568;1251;108462;-60
2023/07/03 04:16:02;;;;;;;;;;;;;;;21.16;68.58;100565.27;107635;1251;97813;-59
2023/07/03 04:18:31;;;;;;;;;;;;;;;21.19;68.57;100570.10;107618;1251;97726;-60
2023/07/03 04:20:59;;;;;;;;;;;;;;;21.21;68.43;100579.27;107612;1254;111804;-61
2023/07/03 04:23:29;;;;;;;;;;;;;;;21.18;68.38;100581.21;107605;1251;110094;-60
2023/07/03 04:25:59;;;;;;;;;;;;;;;21.18;68.38;100583.70;107569;1251;107082;-60
2023/07/03 04:28:27;;;;;;;;;;;;;;;21.22;68.34;100585.50;107597;1251;97847;-61
2023/07/03 04:30:55;;;;;;;;;;;;;;;21.27;68.42;100588.20;107588;1251;97889;-59
2023/07/03 04:33:23;;;;;;;;;;;;;;;21.30;68.29;100594.92;107585;1251;111611;-61
2023/07/03 04:35:51;;;;;;;;;;;;;;;21.29;68.15;100594.84;107631;1251;109911;-61
2023/07/03 04:38:23;;;;;;;;;;;;;;;21.32;68.13;100598.46;107598;1251;107270;-61
2023/07/03 04:40:53;;;;;;;;;;;;;;;21.33;68.30;100603.01;107590;1251;97809;-62
2023/07/03 04:43:21;;;;;;;;;;;;;;;21.30;68.19;100603.44;107619;1250;97925;-60
2023/07/03 04:45:51;;;;;;;;;;;;;;;21.33;67.90;100605.79;107605;1251;111192;-62
2023/07/03 04:48:20;;;;;;;;;;;;;;;21.37;68.16;100610.15;107561;1250;110771;-59
2023/07/03 04:50:49;;;;;;;;;;;;;;;21.35;68.39;100608.48;107603;1251;106859;-60
2023/07/03 04:53:21;;;;;;;;;;;;;;;21.29;68.51;100610.59;107486;1251;97603;-62
2023/07/03 04:55:50;;;;;;;;;;;;;;;21.27;68.51;100607.55;107645;1251;97815;-60
2023/07/03 04:58:20;;;;;;;;;;;;;;;21.29;68.55;100610.42;107577;1251;112177;-60
2023/07/03 05:00:48;;;;;;;;;;;;;;;21.26;68.83;100614.34;107633;1251;108618;-60
2023/07/03 05:03:17;;;;;;;;;;;;;;;21.24;68.80;100619.73;107636;1256;108173;-60
2023/07/03 05:05:45;;;;;;;;;;;;;;;21.25;68.80;100612.81;107608;1250;97911;-59
2023/07/03 05:08:13;;;;;;;;;;;;;;;21.30;68.82;100619.01;107580;1254;97694;-62
2023/07/03 05:10:41;;;;;;;;;;;;;;;21.32;68.80;100618.54;107629;1255;110390;-61
2023/07/03 05:13:10;;;;;;;;;;;;;;;21.30;68.83;100622.78;107612;1253;109705;-60
2023/07/03 05:15:38;;;;;;;;;;;;;;;21.30;68.85;100620.27;107614;1254;107317;-59
2023/07/03 05:18:06;;;;;;;;;;;;;;;21.31;68.97;100628.90;107569;1254;97849;-60
2023/07/03 05:20:35;;;;;;;;;;;;;;;21.32;68.72;100627.63;107618;1254;97931;-61
2023/07/03 05:23:03;;;;;;;;;;;;;;;21.38;68.43;100631.67;107636;1251;112746;-60
2023/07/03 05:25:31;;;;;;;;;;;;;;;21.46;68.33;100638.70;107622;1251;107771;-61
2023/07/03 05:27:59;;;;;;;;;;;;;;;21.51;67.97;100638.44;107569;1251;108227;-60
2023/07/03 05:30:27;;;;;;;;;;;;;;;21.55;67.94;100638.52;107590;1251;97839;-59
2023/07/03 05:32:55;;;;;;;;;;;;;;;21.58;67.64;100641.17;107591;1254;97840;-61
2023/07/03 05:35:24;;;;;;;;;;;;;;;21.61;67.61;100639.58;107591;1251;111732;-61
2023/07/03 05:37:52;;;;;;;;;;;;;;;21.62;67.43;100639.64;107609;1254;109465;-62
2023/07/03 05:40:21;;;;;;;;;;;;;;;21.65;67.63;100642.67;107626;1253;108151;-63
2023/07/03 05:42:49;;;;;;;;;;;;;;;21.69;67.40;100647.34;107653;1251;97807;-61
2023/07/03 05:45:18;;;;;;;;;;;;;;;21.75;67.23;100645.64;107631;1251;97713;-61
2023/07/03 05:47:46;;;;;;;;;;;;;;;21.81;66.93;100646.17;107630;1251;111482;-62
2023/07/03 05:50:14;;;;;;;;;;;;;;;21.81;66.92;100643.42;107679;1255;109258;-62
2023/07/03 05:52:44;;;;;;;;;;;;;;;21.78;66.83;100647.56;107583;1254;108684;-61
2023/07/03 05:55:12;;;;;;;;;;;;;;;21.80;66.76;100646.05;107644;1250;97928;-61
2023/07/03 05:57:41;;;;;;;;;;;;;;;21.91;66.68;100644.13;107635;1251;97871;-61
2023/07/03 06:00:15;;;;;;;;;;;;;;;22.01;66.31;100647.09;107615;1254;112077;-59
2023/07/03 06:02:46;;;;;;;;;;;;;;;22.09;66.11;100651.15;107586;1251;110011;-61
2023/07/03 06:05:14;;;;;;;;;;;;;;;22.14;65.97;100654.34;107600;1254;108745;-60
2023/07/03 06:07:43;;;;;;;;;;;;;;;22.20;65.69;100651.49;107606;1255;97938;-61
2023/07/03 06:10:11;;;;;;;;;;;;;;;22.25;65.72;100654.67;107652;1254;97856;-61
2023/07/03 06:12:40;;;;;;;;;;;;;;;22.29;65.51;100656.98;107666;1254;111483;-61
2023/07/03 06:15:09;;;;;;;;;;;;;;;22.35;65.47;100664.67;107654;1253;109935;-59
2023/07/03 06:17:38;;;;;;;;;;;;;;;22.29;65.24;100662.04;107629;1251;106576;-60
2023/07/03 06:20:07;;;;;;;;;;;;;;;22.34;65.51;100669.83;107549;1253;97774;-61
2023/07/03 06:22:36;;;;;;;;;;;;;;;22.31;65.35;100669.23;107669;1255;97873;-62
2023/07/03 06:25:06;;;;;;;;;;;;;;;22.35;65.45;100671.67;107654;1254;111435;-61
2023/07/03 06:27:35;;;;;;;;;;;;;;;22.39;65.56;100676.48;107675;1251;109646;-60
2023/07/03 06:30:03;;;;;;;;;;;;;;;22.34;65.84;100678.13;107587;1254;108113;-60
2023/07/03 06:32:31;;;;;;;;;;;;;;;22.28;66.80;100680.18;107600;1254;97898;-61
2023/07/03 06:35:00;;;;;;;;;;;;;;;22.27;67.23;100675.48;107598;1254;97822;-62
2023/07/03 06:37:34;;;;;;;;;;;;;;;22.31;68.20;100681.55;107595;1251;111872;-61
2023/07/03 06:40:09;;;;;;;;;;;;;;;22.30;68.72;100683.84;107584;1251;109904;-61
2023/07/03 06:42:38;;;;;;;;;;;;;;;22.32;68.64;100683.14;107642;1250;107738;-62
2023/07/03 06:45:12;;;;;;;;;;;;;;;22.46;69.08;100684.02;107551;1251;97825;-63
2023/07/03 06:47:40;;;;;;;;;;;;;;;22.62;68.54;100682.88;107557;1254;97843;-62
2023/07/03 06:50:09;;;;;;;;;;;;;;;22.78;68.49;100685.27;107670;1254;111190;-62
2023/07/03 06:52:37;;;;;;;;;;;;;;;22.92;68.25;100685.59;107605;1251;109673;-60
2023/07/03 06:55:06;;;;;;;;;;;;;;;23.03;67.79;100688.55;107620;1251;107632;-62
2023/07/03 06:57:34;;;;;;;;;;;;;;;23.06;67.36;100690.64;107609;1251;97821;-60
2023/07/03 07:00:05;;;;;;;;;;;;;;;23.10;67.25;100687.74;107569;1254;97822;-61
2023/07/03 07:02:34;;;;;;;;;;;;;;;23.20;67.15;100689.90;107568;1251;111055;-61
2023/07/03 07:05:03;;;;;;;;;;;;;;;23.32;66.55;100690.23;107663;1254;109826;-61
2023/07/03 07:07:31;;;;;;;;;;;;;;;23.45;66.26;100697.01;107620;1252;107151;-62
2023/07/03 07:09:59;;;;;;;;;;;;;;;23.57;66.11;100693.24;107620;1251;97915;-62
2023/07/03 07:12:28;;;;;;;;;;;;;;;23.76;66.19;100695.81;107558;1256;97700;-59
2023/07/03 07:14:57;;;;;;;;;;;;;;;23.94;65.72;100694.34;107632;1251;111829;-62
2023/07/03 07:17:25;;;;;;;;;;;;;;;24.11;65.27;100692.14;107621;1251;110706;-61
2023/07/03 07:20:09;;;;;;;;;;;;;;;24.27;64.09;100698.16;107578;1251;107874;-62
2023/07/03 07:22:38;;;;;;;;;;;;;;;24.36;63.15;100701.20;107576;1254;97831;-61
2023/07/03 07:25:06;;;;;;;;;;;;;;;24.49;62.87;100699.45;107606;1252;97823;-62
2023/07/03 07:27:35;;;;;;;;;;;;;;;24.60;61.25;100702.19;107628;1254;113296;-61
2023/07/03 07:30:03;;;;;;;;;;;;;;;24.67;61.41;100706.38;107619;1254;109904;-60
2023/07/03 07:32:31;;;;;;;;;;;;;;;24.78;61.47;100705.23;107652;1254;108257;-61
2023/07/03 07:34:59;;;;;;;;;;;;;;;24.88;60.68;100707.52;107620;1253;98473;-60
2023/07/03 07:37:28;;;;;;;;;;;;;;;24.93;60.54;100704.77;107609;1251;97815;-60
2023/07/03 07:39:56;;;;;;;;;;;;;;;24.95;60.03;100716.01;107566;1254;111645;-61
2023/07/03 07:42:24;;;;;;;;;;;;;;;24.89;59.51;100716.83;107686;1254;110267;-61
2023/07/03 07:44:52;;;;;;;;;;;;;;;24.76;59.49;100715.47;107603;1252;108297;-63
2023/07/03 07:47:20;;;;;;;;;;;;;;;24.75;59.93;100718.27;107620;1255;97922;-63
2023/07/03 07:49:49;;;;;;;;;;;;;;;24.94;59.94;100714.48;107606;1250;97825;-60
2023/07/03 07:52:17;;;;;;;;;;;;;;;25.14;59.19;100715.18;107631;1251;113067;-59
2023/07/03 07:54:45;;;;;;;;;;;;;;;25.31;58.43;100717.84;107596;1251;109896;-60
2023/07/03 07:57:13;;;;;;;;;;;;;;;25.49;58.12;100719.11;107595;1251;108138;-59
2023/07/03 07:59:42;;;;;;;;;;;;;;;25.63;58.14;100723.06;107587;1252;97878;-60
2023/07/03 08:02:10;;;;;;;;;;;;;;;25.76;58.40;100724.85;107482;1254;212189;-59
2023/07/03 08:04:38;;;;;;;;;;;;;;;25.84;57.86;100728.34;107625;1253;112214;-60
2023/07/03 08:07:06;;;;;;;;;;;;;;;25.90;57.77;100726.63;107659;1254;108955;-60
2023/07/03 08:09:35;;;;;;;;;;;;;;;25.79;56.24;100727.85;107600;1254;107711;-60
2023/07/03 08:12:04;;;;;;;;;;;;;;;25.72;57.13;100725.59;107631;1253;97818;-61
2023/07/03 08:14:32;;;;;;;;;;;;;;;25.76;57.46;100724.30;107657;1251;97813;-60
2023/07/03 08:17:00;;;;;;;;;;;;;;;25.75;56.87;100725.59;107615;1251;111862;-61
2023/07/03 08:19:29;;;;;;;;;;;;;;;25.65;57.23;100727.02;107606;1254;109671;-60
2023/07/03 08:21:58;;;;;;;;;;;;;;;25.64;57.59;100728.48;107624;1254;108627;-60
2023/07/03 08:24:26;;;;;;;;;;;;;;;25.72;58.03;100726.98;107652;1254;97815;-61
2023/07/03 08:26:54;;;;;;;;;;;;;;;25.79;57.61;100732.85;107598;1253;97742;-61
2023/07/03 08:29:22;;;;;;;;;;;;;;;25.81;57.49;100727.17;107614;1254;110108;-61
2023/07/03 08:31:50;;;;;;;;;;;;;;;25.88;57.67;100728.88;107620;1254;110085;-62
2023/07/03 08:34:19;;;;;;;;;;;;;;;26.01;57.52;100725.89;107574;1253;108370;-61
2023/07/03 08:36:47;;;;;;;;;;;;;;;26.12;56.82;100730.71;107606;1251;97845;-65
2023/07/03 08:39:18;;;;;;;;;;;;;;;26.09;56.21;100728.85;107642;1251;97707;-63
2023/07/03 08:41:56;;;;;;;;;;;;;;;26.16;56.29;100728.21;107661;1251;111362;-61
2023/07/03 08:44:24;;;;;;;;;;;;;;;26.34;55.67;100719.13;107718;1251;108896;-62
2023/07/03 08:46:53;;;;;;;;;;;;;;;26.46;56.03;100724.06;107618;1251;107915;-61
2023/07/03 08:49:38;;;;;;;;;;;;;;;26.65;55.06;100726.44;107642;1250;98466;-64
2023/07/03 08:52:07;;;;;;;;;;;;;;;26.79;54.98;100720.61;107704;1251;97809;-61
2023/07/03 08:54:37;;;;;;;;;;;;;;;26.97;54.19;100720.19;107571;1253;111860;-63
2023/07/03 08:57:06;;;;;;;;;;;;;;;27.07;53.55;100720.86;107675;1254;109069;-61
2023/07/03 08:59:36;;;;;;;;;;;;;;;27.16;53.99;100723.52;107583;1253;108275;-60
2023/07/03 09:02:13;;;;;;;;;;;;;;;27.32;53.71;100722.15;107606;1253;97809;-61
2023/07/03 09:04:53;;;;;;;;;;;;;;;27.48;53.65;100723.21;107631;1251;97817;-62
2023/07/03 09:07:33;;;;;;;;;;;;;;;27.66;52.65;100724.67;107674;1251;111907;-63
2023/07/03 09:10:13;;;;;;;;;;;;;;;27.83;51.99;100722.22;107637;1251;109105;-61
2023/07/03 09:13:02;;;;;;;;;;;;;;;28.04;51.84;100724.52;107619;1251;108214;-63
2023/07/03 09:15:33;;;;;;;;;;;;;;;28.27;50.95;100723.86;107638;1251;97588;-62
2023/07/03 09:18:04;;;;;;;;;;;;;;;28.51;50.48;100719.35;107636;1251;97810;-62
2023/07/03 09:20:33;;;;;;;;;;;;;;;28.72;50.25;100714.20;107694;1251;112464;-64
2023/07/03 09:23:08;;;;;;;;;;;;;;;28.95;49.54;100720.83;107684;1251;109692;-61
2023/07/03 09:25:43;;;;;;;;;;;;;;;29.09;48.95;100718.58;107629;1251;108464;-62
2023/07/03 09:28:11;;;;;;;;;;;;;;;29.24;48.21;100716.47;107636;1250;98590;-61
2023/07/03 09:30:39;;;;;;;;;;;;;;;29.47;48.51;100714.46;107646;1251;97698;-63
2023/07/03 09:33:08;;;;;;;;;;;;;;;29.75;47.19;100715.62;107647;1250;111349;-61
2023/07/03 09:35:40;;;;;;;;;;;;;;;29.99;44.97;100710.70;107591;1251;110023;-62
2023/07/03 09:38:15;;;;;;;;;;;;;;;30.07;44.52;100709.52;107631;1254;108352;-62
2023/07/03 09:40:44;;;;;;;;;;;;;;;30.17;45.12;100705.64;107595;1251;97826;-61
2023/07/03 09:43:13;;;;;;;;;;;;;;;30.41;44.91;100709.79;107656;1251;97698;-61
2023/07/03 09:45:41;;;;;;;;;;;;;;;30.67;43.89;100710.36;107608;1254;112741;-61
2023/07/03 09:48:32;;;;;;;;;;;;;;;30.93;43.07;100708.93;107657;1251;110122;-62
2023/07/03 09:51:04;;;;;;;;;;;;;;;31.13;41.74;100707.04;107579;1251;108379;-63
2023/07/03 09:53:38;;;;;;;;;;;;;;;31.29;42.68;100705.00;107658;1256;97851;-61
2023/07/03 09:56:11;;;;;;;;;;;;;;;31.58;42.67;100707.44;107593;1254;97701;-63
2023/07/03 09:58:43;;;;;;;;;;;;;;;31.96;42.09;100702.17;107583;1257;111839;-61
2023/07/03 10:01:15;;;;;;;;;;;;;;;32.30;41.09;100704.59;107595;1251;109733;-61
2023/07/03 10:04:10;;;;;;;;;;;;;;;32.71;40.04;100699.52;107594;1251;108165;-65
2023/07/03 10:07:05;;;;;;;;;;;;;;;33.08;39.02;100700.63;107657;1256;97890;-61
2023/07/03 10:09:36;;;;;;;;;;;;;;;33.39;38.71;100704.57;107618;1251;97812;-61
2023/07/03 10:12:25;;;;;;;;;;;;;;;33.68;37.76;100699.35;107622;1251;111186;-61
2023/07/03 10:15:02;;;;;;;;;;;;;;;34.08;37.65;100705.15;107574;1251;109242;-61
2023/07/03 10:17:36;;;;;;;;;;;;;;;34.56;36.78;100697.82;107560;1251;108522;-61
2023/07/03 10:20:10;;;;;;;;;;;;;;;35.03;35.50;100697.83;107589;1252;97819;-60
2023/07/03 10:22:40;;;;;;;;;;;;;;;35.40;33.81;100694.01;107647;1256;97827;-60
2023/07/03 10:25:14;;;;;;;;;;;;;;;35.15;33.60;100695.91;107665;1254;111298;-60
2023/07/03 10:27:42;;;;;;;;;;;;;;;34.48;33.78;100695.45;107699;1251;109229;-60
2023/07/03 10:30:15;;;;;;;;;;;;;;;33.87;35.35;100698.67;107613;1255;108286;-62
2023/07/03 10:32:45;;;;;;;;;;;;;;;33.48;36.23;100697.20;107624;1254;97811;-61
2023/07/03 10:35:22;;;;;;;;;;;;;;;33.20;37.21;100692.83;107687;1251;98382;-61
2023/07/03 10:38:13;;;;;;;;;;;;;;;33.08;36.68;100691.44;107643;1256;110715;-61
2023/07/03 10:41:01;;;;;;;;;;;;;;;33.57;36.94;100686.63;107647;1251;109870;-61
2023/07/03 10:43:32;;;;;;;;;;;;;;;34.80;35.33;100688.88;107589;1251;106836;-60
2023/07/03 10:46:02;;;;;;;;;;;;;;;35.83;33.68;100689.66;107634;1254;97803;-60
2023/07/03 10:48:32;;;;;;;;;;;;;;;36.49;31.82;100685.60;107651;1250;97798;-62
2023/07/03 10:51:03;;;;;;;;;;;;;;;37.07;30.88;100682.70;107598;1251;111487;-59
2023/07/03 10:53:39;;;;;;;;;;;;;;;37.79;30.03;100676.56;107585;1251;109510;-61
2023/07/03 10:56:13;;;;;;;;;;;;;;;37.55;29.72;100681.55;107598;1251;107299;-61
2023/07/03 10:58:46;;;;;;;;;;;;;;;37.21;30.83;100678.21;107573;1252;97839;-60
2023/07/03 11:01:20;;;;;;;;;;;;;;;37.24;30.62;100677.98;107636;1251;97897;-61
2023/07/03 11:03:56;;;;;;;;;;;;;;;37.72;30.45;100673.42;107598;1255;111743;-61
2023/07/03 11:06:44;;;;;;;;;;;;;;;38.66;30.06;100671.16;107582;1251;109676;-60
2023/07/03 11:09:24;;;;;;;;;;;;;;;39.50;28.52;100669.89;107541;1254;108787;-61
2023/07/03 11:11:58;;;;;;;;;;;;;;;40.16;27.24;100670.59;107574;1251;97858;-60
2023/07/03 11:14:30;;;;;;;;;;;;;;;39.79;26.99;100674.91;107640;1251;97973;-60
2023/07/03 11:17:09;;;;;;;;;;;;;;;39.06;26.81;100675.10;107621;1254;111693;-59
2023/07/03 11:19:37;;;;;;;;;;;;;;;38.08;28.19;100677.48;107621;1254;110019;-62
2023/07/03 11:22:14;;;;;;;;;;;;;;;37.30;29.55;100675.64;107566;1256;108162;-61
2023/07/03 11:25:01;;;;;;;;;;;;;;;37.04;29.34;100672.75;107625;1254;97821;-61
2023/07/03 11:27:35;;;;;;;;;;;;;;;36.39;30.30;100664.30;107643;1251;97800;-63
2023/07/03 11:30:08;;;;;;;;;;;;;;;35.91;31.35;100663.09;107661;1251;111532;-62
2023/07/03 11:32:36;;;;;;;;;;;;;;;35.63;31.31;100661.27;107628;1251;109989;-61
2023/07/03 11:35:08;;;;;;;;;;;;;;;35.67;30.87;100655.33;107596;1251;108989;-61
2023/07/03 11:37:39;;;;;;;;;;;;;;;35.43;30.79;100656.98;107591;1251;97835;-60
2023/07/03 11:40:23;;;;;;;;;;;;;;;34.94;31.82;100651.85;107605;1254;97893;-62
2023/07/03 11:43:13;;;;;;;;;;;;;;;34.29;32.57;100651.76;107612;1250;111281;-61
2023/07/03 11:45:57;;;;;;;;;;;;;;;33.90;32.98;100650.61;107591;1251;110355;-61
2023/07/03 11:48:28;;;;;;;;;;;;;;;33.71;33.83;100648.34;107568;1251;108636;-63
2023/07/03 11:51:06;;;;;;;;;;;;;;;33.72;34.23;100646.88;107516;1251;97829;-60
2023/07/03 11:53:37;;;;;;;;;;;;;;;34.25;33.67;100642.25;107528;1253;98307;-60
2023/07/03 11:56:07;;;;;;;;;;;;;;;34.95;33.22;100639.29;107565;1254;112174;-61
2023/07/03 11:58:36;;;;;;;;;;;;;;;36.13;31.67;100646.41;107518;1251;109972;-60
2023/07/03 12:01:25;;;;;;;;;;;;;;;37.22;30.49;100637.14;107524;1252;108327;-61
2023/07/03 12:03:55;;;;;;;;;;;;;;;38.28;28.22;100630.07;107564;1251;97837;-60
2023/07/03 12:06:39;;;;;;;;;;;;;;;38.98;27.60;100627.36;107544;1251;97807;-61
2023/07/03 12:09:19;;;;;;;;;;;;;;;39.53;26.42;100627.23;107582;1251;111217;-61
2023/07/03 12:11:59;;;;;;;;;;;;;;;39.88;26.54;100623.39;107597;1251;109766;-61
2023/07/03 12:14:39;;;;;;;;;;;;;;;40.51;26.30;100625.81;107572;1251;109068;-61
2023/07/03 12:17:23;;;;;;;;;;;;;;;41.13;25.45;100624.57;107548;1255;97797;-62
2023/07/03 12:19:55;;;;;;;;;;;;;;;41.67;23.27;100621.54;107564;1254;98944;-62
2023/07/03 12:22:25;;;;;;;;;;;;;;;41.82;23.52;100622.77;107635;1254;111741;-61
2023/07/03 12:25:05;;;;;;;;;;;;;;;42.22;23.91;100622.89;107660;1251;109071;-62
2023/07/03 12:27:34;;;;;;;;;;;;;;;42.77;22.18;100613.73;107588;1255;108321;-60
2023/07/03 12:30:03;;;;;;;;;;;;;;;43.06;21.32;100610.01;107568;1254;97829;-61
2023/07/03 12:32:35;;;;;;;;;;;;;;;43.16;21.59;100610.61;107641;1256;97698;-60
2023/07/03 12:35:10;;;;;;;;;;;;;;;43.24;21.90;100610.98;107649;1251;111362;-61
2023/07/03 12:37:41;;;;;;;;;;;;;;;43.31;21.71;100608.90;107584;1251;107999;-60
2023/07/03 12:40:11;;;;;;;;;;;;;;;42.99;22.20;100606.80;107591;1256;106679;-61